Lulu Pass Weather Station

This weather station provides temperature, relative humidity (RH), wind speed, gust or max wind speed, and wind direction at 10014ft near Lulu Pass at the head of Fisher Creek. This data can be used with temperature and precipitation data from the Fisher Creek SNOTEL site.

This weather station was purchased by the Friends of the Avalanche Center.

If the data has not been updated recently you can view it directly on datagarrison.com

Elevation
10014ft
Jump to table bottom
Date Time Temperature
deg F
RH, % Wind Speed Wind Gust Wind Direction
01/19/22 18:00 8.6 92 16 22 NW - 312
01/19/22 17:00 9.3 92 19 25 NW - 309
01/19/22 16:00 11.1 93 23 30 NW - 312
01/19/22 15:00 12.0 93 26 32 NW - 303
01/19/22 14:00 12.1 93 21 31 NW - 302
01/19/22 13:00 11.4 93 19 27 NW - 306
01/19/22 12:00 11.6 93 17 22 NW - 316
01/19/22 11:00 10.9 92 16 20 NW - 317
01/19/22 10:00 10.4 92 15 21 NW - 314
01/19/22 09:00 11.4 92 15 20 NW - 309
01/19/22 08:00 11.7 92 13 18 NW - 316
01/19/22 07:00 12.0 92 11 16 NW - 312
01/19/22 06:00 12.0 92 14 18 NW - 314
01/19/22 05:00 12.3 93 12 16 NW - 310
01/19/22 04:00 12.4 93 13 18 NW - 317
01/19/22 03:00 12.5 93 16 21 NW - 317
01/19/22 02:00 12.7 93 17 21 NW - 312
01/19/22 01:00 12.6 93 14 20 NW - 307
01/19/22 00:00 13.5 93 12 18 NW - 293
01/18/22 23:00 13.7 93 13 21 NW - 296
01/18/22 22:00 14.3 93 11 19 W - 292
01/18/22 21:00 15.1 94 14 21 W - 292
01/18/22 20:00 15.6 94 13 18 W - 292
01/18/22 19:00 15.9 94 17 25 NW - 298
01/18/22 18:00 16.6 94 17 29 W - 291
01/18/22 17:00 17.2 94 16 29 W - 284
01/18/22 16:00 17.3 94 17 29 NW - 299
01/18/22 15:00 17.5 94 14 31 NW - 299
01/18/22 14:00 16.7 94 10 17 NW - 295
01/18/22 13:00 16.2 93 12 18 NW - 309
01/18/22 12:00 15.3 93 8 13 NW - 312
01/18/22 11:00 15.9 93 9 21 NW - 314
01/18/22 10:00 14.0 93 10 18 NW - 321
01/18/22 09:00 13.4 93 13 19 NW - 323
01/18/22 08:00 13.5 93 9 15 NW - 302
01/18/22 07:00 13.4 92 6 15 W - 272
01/18/22 06:00 14.3 93 7 16 W - 282
01/18/22 05:00 14.2 93 6 12 NW - 296
01/18/22 04:00 14.9 92 5 14 W - 267
01/18/22 03:00 15.7 85 8 14 W - 271
01/18/22 02:00 17.1 84 7 14 W - 281
01/18/22 01:00 17.8 83 7 15 W - 274
01/18/22 00:00 18.0 82 13 20 NW - 302
01/17/22 23:00 18.4 82 8 16 W - 251
01/17/22 22:00 19.7 79 6 15 SW - 223
01/17/22 21:00 21.0 79 6 14 SW - 247
01/17/22 20:00 20.0 81 7 16 SW - 230
01/17/22 19:00 20.3 79 11 19 NW - 309
01/17/22 18:00 19.4 79 12 18 NW - 331
01/17/22 17:00 20.3 76 10 16 NW - 327